Abney, South Carolina
Current Conditions -  °F | °C
As of 9:35 AM on Sunday 21 Dec 2014 (Local Time) from KCDN Reporting Station
Scattered Clouds Scattered Clouds  
Wind Chill: 34°   Ceiling: Unl
Heat Index: 39°   Visibility: 7mi
Dew Point: 34°   Wind: 7mph
Humidity: 81%   Direction: 40°NE
Pressure: 30.29"   Gusts: NA
Location:  34.5438°N, 80.5351°W
Report Text: KCDN 211435Z AUTO 04006KT 7SM FEW070 SCT080 04/01 A3029 RMK AO2 TSNO
Loading
Personal Weather Stations






























Interactive Weather Map New forecast layout! Learn more

10-Day Weather Forecast

Advertisements
Track Severe Weather on mobile